sensor_id;sensor_type;location;lat;lon;timestamp;P1;durP1;ratioP1;P2;durP2;ratioP2
45893;SDS011;31603;51.148;16.932;2023-04-24T00:00:36;35.22;;;12.27;;
45893;SDS011;31603;51.148;16.932;2023-04-24T00:03:05;33.72;;;13.75;;
45893;SDS011;31603;51.148;16.932;2023-04-24T00:05:32;42.75;;;14.73;;
45893;SDS011;31603;51.148;16.932;2023-04-24T00:07:58;41.97;;;13.57;;
45893;SDS011;31603;51.148;16.932;2023-04-24T00:10:25;34.25;;;12.82;;
45893;SDS011;31603;51.148;16.932;2023-04-24T00:12:51;34.15;;;13.23;;
45893;SDS011;31603;51.148;16.932;2023-04-24T00:15:17;33.33;;;12.40;;
45893;SDS011;31603;51.148;16.932;2023-04-24T00:17:45;31.85;;;12.88;;
45893;SDS011;31603;51.148;16.932;2023-04-24T00:20:11;34.45;;;12.63;;
45893;SDS011;31603;51.148;16.932;2023-04-24T00:22:39;14.48;;;11.00;;
45893;SDS011;31603;51.148;16.932;2023-04-24T00:25:06;24.67;;;11.85;;
45893;SDS011;31603;51.148;16.932;2023-04-24T00:27:32;31.27;;;12.20;;
45893;SDS011;31603;51.148;16.932;2023-04-24T00:30:00;45.45;;;12.60;;
45893;SDS011;31603;51.148;16.932;2023-04-24T00:32:26;44.58;;;12.45;;
45893;SDS011;31603;51.148;16.932;2023-04-24T00:34:53;42.15;;;13.20;;
45893;SDS011;31603;51.148;16.932;2023-04-24T00:37:20;45.25;;;13.55;;
45893;SDS011;31603;51.148;16.932;2023-04-24T00:39:47;49.28;;;13.60;;
45893;SDS011;31603;51.148;16.932;2023-04-24T00:42:13;48.53;;;14.07;;
45893;SDS011;31603;51.148;16.932;2023-04-24T00:44:39;40.33;;;13.10;;
45893;SDS011;31603;51.148;16.932;2023-04-24T00:47:05;16.35;;;11.48;;
45893;SDS011;31603;51.148;16.932;2023-04-24T00:49:32;20.88;;;12.60;;
45893;SDS011;31603;51.148;16.932;2023-04-24T00:52:00;18.30;;;12.38;;
45893;SDS011;31603;51.148;16.932;2023-04-24T00:54:27;18.67;;;12.15;;
45893;SDS011;31603;51.148;16.932;2023-04-24T00:56:53;16.20;;;11.38;;
45893;SDS011;31603;51.148;16.932;2023-04-24T00:59:20;18.90;;;12.63;;
45893;SDS011;31603;51.148;16.932;2023-04-24T01:01:46;16.55;;;11.80;;
45893;SDS011;31603;51.148;16.932;2023-04-24T01:04:12;19.08;;;12.93;;
45893;SDS011;31603;51.148;16.932;2023-04-24T01:06:39;18.23;;;11.82;;
45893;SDS011;31603;51.148;16.932;2023-04-24T01:09:07;47.20;;;14.52;;
45893;SDS011;31603;51.148;16.932;2023-04-24T01:11:34;36.05;;;12.23;;
45893;SDS011;31603;51.148;16.932;2023-04-24T01:14:00;42.25;;;13.73;;
45893;SDS011;31603;51.148;16.932;2023-04-24T01:16:27;39.72;;;13.95;;
45893;SDS011;31603;51.148;16.932;2023-04-24T01:18:53;35.00;;;13.10;;
45893;SDS011;31603;51.148;16.932;2023-04-24T01:21:19;44.97;;;14.32;;
45893;SDS011;31603;51.148;16.932;2023-04-24T01:23:48;18.77;;;12.52;;
45893;SDS011;31603;51.148;16.932;2023-04-24T01:26:15;17.80;;;11.50;;
45893;SDS011;31603;51.148;16.932;2023-04-24T01:28:41;28.85;;;14.23;;
45893;SDS011;31603;51.148;16.932;2023-04-24T01:31:07;25.48;;;13.23;;
45893;SDS011;31603;51.148;16.932;2023-04-24T01:33:34;38.53;;;13.70;;
45893;SDS011;31603;51.148;16.932;2023-04-24T01:36:00;36.70;;;14.98;;
45893;SDS011;31603;51.148;16.932;2023-04-24T01:38:27;39.45;;;14.65;;
45893;SDS011;31603;51.148;16.932;2023-04-24T01:40:55;43.60;;;13.40;;
45893;SDS011;31603;51.148;16.932;2023-04-24T01:43:21;20.75;;;13.73;;
45893;SDS011;31603;51.148;16.932;2023-04-24T01:45:48;42.08;;;14.80;;
45893;SDS011;31603;51.148;16.932;2023-04-24T01:48:14;40.05;;;13.40;;
45893;SDS011;31603;51.148;16.932;2023-04-24T01:50:40;54.42;;;14.85;;
45893;SDS011;31603;51.148;16.932;2023-04-24T01:53:06;45.72;;;14.10;;
45893;SDS011;31603;51.148;16.932;2023-04-24T01:55:33;18.20;;;12.52;;
45893;SDS011;31603;51.148;16.932;2023-04-24T01:58:01;18.52;;;12.68;;
45893;SDS011;31603;51.148;16.932;2023-04-24T02:00:27;18.05;;;12.88;;
45893;SDS011;31603;51.148;16.932;2023-04-24T02:02:53;19.38;;;13.80;;
45893;SDS011;31603;51.148;16.932;2023-04-24T02:05:20;28.35;;;14.30;;
45893;SDS011;31603;51.148;16.932;2023-04-24T02:07:46;44.25;;;14.70;;
45893;SDS011;31603;51.148;16.932;2023-04-24T02:10:12;38.28;;;13.50;;
45893;SDS011;31603;51.148;16.932;2023-04-24T02:12:38;44.83;;;15.25;;
45893;SDS011;31603;51.148;16.932;2023-04-24T02:15:06;18.70;;;12.10;;
45893;SDS011;31603;51.148;16.932;2023-04-24T02:17:33;21.92;;;15.10;;
45893;SDS011;31603;51.148;16.932;2023-04-24T02:19:59;48.47;;;25.80;;
45893;SDS011;31603;51.148;16.932;2023-04-24T02:22:26;68.60;;;28.20;;
45893;SDS011;31603;51.148;16.932;2023-04-24T02:24:52;32.70;;;25.17;;
45893;SDS011;31603;51.148;16.932;2023-04-24T02:27:19;28.55;;;18.40;;
45893;SDS011;31603;51.148;16.932;2023-04-24T02:29:45;20.52;;;15.80;;
45893;SDS011;31603;51.148;16.932;2023-04-24T02:32:13;18.48;;;14.30;;
45893;SDS011;31603;51.148;16.932;2023-04-24T02:34:40;22.13;;;14.60;;
45893;SDS011;31603;51.148;16.932;2023-04-24T02:37:06;19.60;;;13.20;;
45893;SDS011;31603;51.148;16.932;2023-04-24T02:39:33;19.35;;;13.32;;
45893;SDS011;31603;51.148;16.932;2023-04-24T02:41:59;20.40;;;13.23;;
45893;SDS011;31603;51.148;16.932;2023-04-24T02:44:26;21.15;;;14.20;;
45893;SDS011;31603;51.148;16.932;2023-04-24T02:46:52;31.65;;;13.98;;
45893;SDS011;31603;51.148;16.932;2023-04-24T02:49:20;17.40;;;12.55;;
45893;SDS011;31603;51.148;16.932;2023-04-24T02:51:46;16.05;;;11.45;;
45893;SDS011;31603;51.148;16.932;2023-04-24T02:54:13;16.00;;;11.57;;
45893;SDS011;31603;51.148;16.932;2023-04-24T02:56:39;16.45;;;10.70;;
45893;SDS011;31603;51.148;16.932;2023-04-24T02:59:05;13.75;;;10.50;;
45893;SDS011;31603;51.148;16.932;2023-04-24T03:01:31;15.93;;;10.95;;
45893;SDS011;31603;51.148;16.932;2023-04-24T03:03:58;33.22;;;12.18;;
45893;SDS011;31603;51.148;16.932;2023-04-24T03:06:26;14.10;;;9.85;;
45893;SDS011;31603;51.148;16.932;2023-04-24T03:08:53;14.68;;;10.07;;
45893;SDS011;31603;51.148;16.932;2023-04-24T03:11:19;17.08;;;11.65;;
45893;SDS011;31603;51.148;16.932;2023-04-24T03:13:45;17.02;;;11.75;;
45893;SDS011;31603;51.148;16.932;2023-04-24T03:16:12;26.80;;;12.52;;
45893;SDS011;31603;51.148;16.932;2023-04-24T03:18:38;30.23;;;11.75;;
45893;SDS011;31603;51.148;16.932;2023-04-24T03:21:04;50.80;;;12.80;;
45893;SDS011;31603;51.148;16.932;2023-04-24T03:23:32;15.18;;;10.85;;
45893;SDS011;31603;51.148;16.932;2023-04-24T03:25:58;16.63;;;11.73;;
45893;SDS011;31603;51.148;16.932;2023-04-24T03:28:24;14.60;;;10.60;;
45893;SDS011;31603;51.148;16.932;2023-04-24T03:30:51;14.85;;;11.13;;
45893;SDS011;31603;51.148;16.932;2023-04-24T03:33:17;16.73;;;11.93;;
45893;SDS011;31603;51.148;16.932;2023-04-24T03:35:43;15.60;;;10.85;;
45893;SDS011;31603;51.148;16.932;2023-04-24T03:38:10;15.52;;;10.15;;
45893;SDS011;31603;51.148;16.932;2023-04-24T03:40:37;14.38;;;11.13;;
45893;SDS011;31603;51.148;16.932;2023-04-24T03:43:03;15.85;;;10.45;;
45893;SDS011;31603;51.148;16.932;2023-04-24T03:45:30;19.88;;;12.13;;
45893;SDS011;31603;51.148;16.932;2023-04-24T03:47:56;15.50;;;12.05;;
45893;SDS011;31603;51.148;16.932;2023-04-24T03:50:22;15.88;;;11.32;;
45893;SDS011;31603;51.148;16.932;2023-04-24T03:52:48;17.90;;;11.65;;
45893;SDS011;31603;51.148;16.932;2023-04-24T03:55:15;21.80;;;13.65;;
45893;SDS011;31603;51.148;16.932;2023-04-24T03:57:42;22.60;;;14.85;;
45893;SDS011;31603;51.148;16.932;2023-04-24T04:00:09;18.60;;;11.82;;
45893;SDS011;31603;51.148;16.932;2023-04-24T04:02:36;16.75;;;11.82;;
45893;SDS011;31603;51.148;16.932;2023-04-24T04:05:02;16.00;;;11.77;;
45893;SDS011;31603;51.148;16.932;2023-04-24T04:07:29;17.50;;;12.20;;
45893;SDS011;31603;51.148;16.932;2023-04-24T04:09:55;18.13;;;12.00;;
45893;SDS011;31603;51.148;16.932;2023-04-24T04:12:21;16.88;;;12.48;;
45893;SDS011;31603;51.148;16.932;2023-04-24T04:14:49;16.63;;;11.63;;
45893;SDS011;31603;51.148;16.932;2023-04-24T04:17:15;16.15;;;11.32;;
45893;SDS011;31603;51.148;16.932;2023-04-24T04:19:42;17.52;;;11.20;;
45893;SDS011;31603;51.148;16.932;2023-04-24T04:22:09;14.18;;;11.18;;
45893;SDS011;31603;51.148;16.932;2023-04-24T04:24:35;15.20;;;11.07;;
45893;SDS011;31603;51.148;16.932;2023-04-24T04:27:03;17.42;;;12.13;;
45893;SDS011;31603;51.148;16.932;2023-04-24T04:29:29;16.17;;;11.57;;
45893;SDS011;31603;51.148;16.932;2023-04-24T04:31:57;16.27;;;11.27;;
45893;SDS011;31603;51.148;16.932;2023-04-24T04:34:24;16.15;;;11.63;;
45893;SDS011;31603;51.148;16.932;2023-04-24T04:36:50;18.63;;;12.35;;
45893;SDS011;31603;51.148;16.932;2023-04-24T04:39:16;16.67;;;12.77;;
45893;SDS011;31603;51.148;16.932;2023-04-24T04:41:43;17.15;;;12.50;;
45893;SDS011;31603;51.148;16.932;2023-04-24T04:44:11;17.92;;;13.57;;
45893;SDS011;31603;51.148;16.932;2023-04-24T04:46:37;19.55;;;12.50;;
45893;SDS011;31603;51.148;16.932;2023-04-24T04:49:05;19.27;;;12.45;;
45893;SDS011;31603;51.148;16.932;2023-04-24T04:51:33;15.88;;;11.30;;
45893;SDS011;31603;51.148;16.932;2023-04-24T04:53:59;17.10;;;10.32;;
45893;SDS011;31603;51.148;16.932;2023-04-24T04:56:26;15.50;;;10.55;;
45893;SDS011;31603;51.148;16.932;2023-04-24T04:58:52;15.32;;;10.65;;
45893;SDS011;31603;51.148;16.932;2023-04-24T05:01:18;18.02;;;11.02;;
45893;SDS011;31603;51.148;16.932;2023-04-24T05:03:46;16.38;;;10.45;;
45893;SDS011;31603;51.148;16.932;2023-04-24T05:06:14;13.07;;;9.57;;
45893;SDS011;31603;51.148;16.932;2023-04-24T05:08:40;13.98;;;10.43;;
45893;SDS011;31603;51.148;16.932;2023-04-24T05:11:06;17.25;;;10.07;;
45893;SDS011;31603;51.148;16.932;2023-04-24T05:13:33;13.40;;;10.70;;
45893;SDS011;31603;51.148;16.932;2023-04-24T05:16:02;13.63;;;10.50;;
45893;SDS011;31603;51.148;16.932;2023-04-24T05:18:28;12.20;;;9.77;;
45893;SDS011;31603;51.148;16.932;2023-04-24T05:20:55;13.60;;;9.15;;
45893;SDS011;31603;51.148;16.932;2023-04-24T05:23:23;16.70;;;10.02;;
45893;SDS011;31603;51.148;16.932;2023-04-24T05:25:49;15.98;;;9.77;;
45893;SDS011;31603;51.148;16.932;2023-04-24T05:28:15;12.63;;;10.05;;
45893;SDS011;31603;51.148;16.932;2023-04-24T05:30:42;13.93;;;8.65;;
45893;SDS011;31603;51.148;16.932;2023-04-24T05:33:08;16.02;;;10.20;;
45893;SDS011;31603;51.148;16.932;2023-04-24T05:35:34;14.25;;;9.00;;
45893;SDS011;31603;51.148;16.932;2023-04-24T05:38:01;14.25;;;10.25;;
45893;SDS011;31603;51.148;16.932;2023-04-24T05:40:28;16.63;;;9.52;;
45893;SDS011;31603;51.148;16.932;2023-04-24T05:42:55;13.10;;;9.60;;
45893;SDS011;31603;51.148;16.932;2023-04-24T05:45:21;16.08;;;9.30;;
45893;SDS011;31603;51.148;16.932;2023-04-24T05:47:47;16.48;;;9.18;;
45893;SDS011;31603;51.148;16.932;2023-04-24T05:50:13;15.15;;;8.55;;
45893;SDS011;31603;51.148;16.932;2023-04-24T05:52:43;15.25;;;8.77;;
45893;SDS011;31603;51.148;16.932;2023-04-24T05:55:09;16.95;;;9.07;;
45893;SDS011;31603;51.148;16.932;2023-04-24T05:57:37;14.05;;;8.65;;
45893;SDS011;31603;51.148;16.932;2023-04-24T06:00:04;15.57;;;8.05;;
45893;SDS011;31603;51.148;16.932;2023-04-24T06:02:31;13.20;;;8.85;;
45893;SDS011;31603;51.148;16.932;2023-04-24T06:04:57;13.57;;;8.40;;
45893;SDS011;31603;51.148;16.932;2023-04-24T06:07:24;13.75;;;8.40;;
45893;SDS011;31603;51.148;16.932;2023-04-24T06:09:51;13.60;;;7.72;;
45893;SDS011;31603;51.148;16.932;2023-04-24T06:12:17;13.68;;;7.97;;
45893;SDS011;31603;51.148;16.932;2023-04-24T06:14:45;15.93;;;9.35;;
45893;SDS011;31603;51.148;16.932;2023-04-24T06:17:11;12.77;;;7.82;;
45893;SDS011;31603;51.148;16.932;2023-04-24T06:19:37;11.25;;;6.93;;
45893;SDS011;31603;51.148;16.932;2023-04-24T06:22:03;11.48;;;7.22;;
45893;SDS011;31603;51.148;16.932;2023-04-24T06:24:30;12.05;;;7.20;;
45893;SDS011;31603;51.148;16.932;2023-04-24T06:26:56;11.27;;;7.13;;
45893;SDS011;31603;51.148;16.932;2023-04-24T06:29:23;10.77;;;7.00;;
45893;SDS011;31603;51.148;16.932;2023-04-24T06:31:52;12.77;;;6.80;;
45893;SDS011;31603;51.148;16.932;2023-04-24T06:34:18;10.35;;;6.93;;
45893;SDS011;31603;51.148;16.932;2023-04-24T06:36:44;12.70;;;6.95;;
45893;SDS011;31603;51.148;16.932;2023-04-24T06:39:10;9.43;;;6.68;;
45893;SDS011;31603;51.148;16.932;2023-04-24T06:41:37;10.80;;;6.88;;
45893;SDS011;31603;51.148;16.932;2023-04-24T06:44:04;13.70;;;7.47;;
45893;SDS011;31603;51.148;16.932;2023-04-24T06:46:31;7.18;;;5.72;;
45893;SDS011;31603;51.148;16.932;2023-04-24T06:48:59;11.48;;;7.20;;
45893;SDS011;31603;51.148;16.932;2023-04-24T06:51:26;9.95;;;7.03;;
45893;SDS011;31603;51.148;16.932;2023-04-24T06:53:53;10.13;;;6.40;;
45893;SDS011;31603;51.148;16.932;2023-04-24T06:56:21;9.98;;;6.50;;
45893;SDS011;31603;51.148;16.932;2023-04-24T06:58:47;13.10;;;6.57;;
45893;SDS011;31603;51.148;16.932;2023-04-24T07:01:13;10.52;;;7.10;;
45893;SDS011;31603;51.148;16.932;2023-04-24T07:03:40;11.60;;;6.45;;
45893;SDS011;31603;51.148;16.932;2023-04-24T07:06:08;48.28;;;9.90;;
45893;SDS011;31603;51.148;16.932;2023-04-24T07:08:36;9.52;;;6.15;;
45893;SDS011;31603;51.148;16.932;2023-04-24T07:11:02;12.07;;;8.02;;
45893;SDS011;31603;51.148;16.932;2023-04-24T07:13:29;10.68;;;7.57;;
45893;SDS011;31603;51.148;16.932;2023-04-24T07:15:55;11.13;;;6.95;;
45893;SDS011;31603;51.148;16.932;2023-04-24T07:18:22;10.52;;;6.80;;
45893;SDS011;31603;51.148;16.932;2023-04-24T07:20:48;12.65;;;6.70;;
45893;SDS011;31603;51.148;16.932;2023-04-24T07:23:17;12.30;;;6.28;;
45893;SDS011;31603;51.148;16.932;2023-04-24T07:25:43;8.80;;;7.05;;
45893;SDS011;31603;51.148;16.932;2023-04-24T07:28:10;8.38;;;5.78;;
45893;SDS011;31603;51.148;16.932;2023-04-24T07:30:36;10.70;;;6.28;;
45893;SDS011;31603;51.148;16.932;2023-04-24T07:33:03;7.97;;;5.47;;
45893;SDS011;31603;51.148;16.932;2023-04-24T07:35:29;8.52;;;5.32;;
45893;SDS011;31603;51.148;16.932;2023-04-24T07:37:55;7.95;;;5.50;;
45893;SDS011;31603;51.148;16.932;2023-04-24T07:40:23;9.27;;;5.68;;
45893;SDS011;31603;51.148;16.932;2023-04-24T07:42:49;6.13;;;4.30;;
45893;SDS011;31603;51.148;16.932;2023-04-24T07:45:16;8.93;;;4.95;;
45893;SDS011;31603;51.148;16.932;2023-04-24T07:47:42;7.10;;;5.38;;
45893;SDS011;31603;51.148;16.932;2023-04-24T07:50:10;6.43;;;5.20;;
45893;SDS011;31603;51.148;16.932;2023-04-24T07:52:37;7.32;;;5.13;;
45893;SDS011;31603;51.148;16.932;2023-04-24T07:55:03;6.57;;;4.75;;
45893;SDS011;31603;51.148;16.932;2023-04-24T07:57:31;4.63;;;3.67;;
45893;SDS011;31603;51.148;16.932;2023-04-24T07:59:57;5.13;;;3.35;;
45893;SDS011;31603;51.148;16.932;2023-04-24T08:02:24;3.60;;;3.10;;
45893;SDS011;31603;51.148;16.932;2023-04-24T08:04:52;3.78;;;3.13;;
45893;SDS011;31603;51.148;16.932;2023-04-24T08:07:18;4.00;;;3.40;;
45893;SDS011;31603;51.148;16.932;2023-04-24T08:09:45;4.55;;;3.10;;
45893;SDS011;31603;51.148;16.932;2023-04-24T08:12:11;3.92;;;3.08;;
45893;SDS011;31603;51.148;16.932;2023-04-24T08:14:38;4.20;;;3.05;;
45893;SDS011;31603;51.148;16.932;2023-04-24T08:17:05;4.32;;;3.00;;
45893;SDS011;31603;51.148;16.932;2023-04-24T08:19:31;4.57;;;3.35;;
45893;SDS011;31603;51.148;16.932;2023-04-24T08:21:57;5.07;;;3.05;;
45893;SDS011;31603;51.148;16.932;2023-04-24T08:24:24;4.38;;;3.08;;
45893;SDS011;31603;51.148;16.932;2023-04-24T08:26:50;3.45;;;3.15;;
45893;SDS011;31603;51.148;16.932;2023-04-24T08:29:19;4.70;;;3.17;;
45893;SDS011;31603;51.148;16.932;2023-04-24T08:31:46;3.80;;;3.20;;
45893;SDS011;31603;51.148;16.932;2023-04-24T08:34:13;4.07;;;3.20;;
45893;SDS011;31603;51.148;16.932;2023-04-24T08:36:39;4.40;;;3.25;;
45893;SDS011;31603;51.148;16.932;2023-04-24T08:39:06;4.75;;;3.95;;
45893;SDS011;31603;51.148;16.932;2023-04-24T08:41:33;4.55;;;3.70;;
45893;SDS011;31603;51.148;16.932;2023-04-24T08:44:00;7.28;;;3.65;;
45893;SDS011;31603;51.148;16.932;2023-04-24T08:46:27;4.50;;;3.28;;
45893;SDS011;31603;51.148;16.932;2023-04-24T08:48:57;5.30;;;3.80;;
45893;SDS011;31603;51.148;16.932;2023-04-24T08:51:23;5.60;;;3.72;;
45893;SDS011;31603;51.148;16.932;2023-04-24T08:53:51;5.72;;;4.00;;
45893;SDS011;31603;51.148;16.932;2023-04-24T08:56:19;4.50;;;3.75;;
45893;SDS011;31603;51.148;16.932;2023-04-24T08:58:48;5.32;;;4.18;;
45893;SDS011;31603;51.148;16.932;2023-04-24T09:01:15;4.75;;;3.58;;
45893;SDS011;31603;51.148;16.932;2023-04-24T09:03:42;5.95;;;4.40;;
45893;SDS011;31603;51.148;16.932;2023-04-24T09:06:10;5.30;;;4.30;;
45893;SDS011;31603;51.148;16.932;2023-04-24T09:08:36;6.25;;;4.18;;
45893;SDS011;31603;51.148;16.932;2023-04-24T09:11:03;8.85;;;5.05;;
45893;SDS011;31603;51.148;16.932;2023-04-24T09:13:30;5.70;;;4.40;;
45893;SDS011;31603;51.148;16.932;2023-04-24T09:15:56;6.35;;;5.03;;
45893;SDS011;31603;51.148;16.932;2023-04-24T09:18:25;7.40;;;4.57;;
45893;SDS011;31603;51.148;16.932;2023-04-24T09:20:58;6.35;;;4.78;;
45893;SDS011;31603;51.148;16.932;2023-04-24T09:23:28;7.47;;;5.70;;
45893;SDS011;31603;51.148;16.932;2023-04-24T09:25:55;5.47;;;4.55;;
45893;SDS011;31603;51.148;16.932;2023-04-24T09:28:24;6.47;;;4.78;;
45893;SDS011;31603;51.148;16.932;2023-04-24T09:31:01;5.57;;;4.47;;
45893;SDS011;31603;51.148;16.932;2023-04-24T09:33:27;5.30;;;4.70;;
45893;SDS011;31603;51.148;16.932;2023-04-24T09:35:56;22.65;;;6.40;;
45893;SDS011;31603;51.148;16.932;2023-04-24T09:38:31;5.90;;;4.95;;
45893;SDS011;31603;51.148;16.932;2023-04-24T09:40:59;8.15;;;4.90;;
45893;SDS011;31603;51.148;16.932;2023-04-24T09:43:26;6.95;;;4.22;;
45893;SDS011;31603;51.148;16.932;2023-04-24T09:45:53;5.95;;;4.25;;
45893;SDS011;31603;51.148;16.932;2023-04-24T09:48:29;6.85;;;4.53;;
45893;SDS011;31603;51.148;16.932;2023-04-24T09:50:55;5.40;;;4.10;;
45893;SDS011;31603;51.148;16.932;2023-04-24T09:53:23;5.90;;;5.03;;
45893;SDS011;31603;51.148;16.932;2023-04-24T09:55:52;7.07;;;4.53;;
45893;SDS011;31603;51.148;16.932;2023-04-24T09:58:18;5.38;;;4.75;;
45893;SDS011;31603;51.148;16.932;2023-04-24T10:00:50;6.80;;;4.57;;
45893;SDS011;31603;51.148;16.932;2023-04-24T10:03:19;6.13;;;4.55;;
45893;SDS011;31603;51.148;16.932;2023-04-24T10:05:46;7.50;;;4.35;;
45893;SDS011;31603;51.148;16.932;2023-04-24T10:08:12;7.35;;;5.22;;
45893;SDS011;31603;51.148;16.932;2023-04-24T10:10:40;7.57;;;4.85;;
45893;SDS011;31603;51.148;16.932;2023-04-24T10:13:08;6.85;;;4.93;;
45893;SDS011;31603;51.148;16.932;2023-04-24T10:15:35;7.40;;;5.25;;
45893;SDS011;31603;51.148;16.932;2023-04-24T10:18:01;7.05;;;5.53;;
45893;SDS011;31603;51.148;16.932;2023-04-24T10:20:28;6.68;;;5.20;;
45893;SDS011;31603;51.148;16.932;2023-04-24T10:22:55;6.07;;;5.10;;
45893;SDS011;31603;51.148;16.932;2023-04-24T10:25:22;6.88;;;4.65;;
45893;SDS011;31603;51.148;16.932;2023-04-24T10:27:49;6.97;;;5.50;;
45893;SDS011;31603;51.148;16.932;2023-04-24T10:30:18;6.75;;;5.35;;
45893;SDS011;31603;51.148;16.932;2023-04-24T10:32:44;7.95;;;5.68;;
45893;SDS011;31603;51.148;16.932;2023-04-24T10:35:12;7.40;;;5.35;;
45893;SDS011;31603;51.148;16.932;2023-04-24T10:37:38;8.57;;;6.32;;
45893;SDS011;31603;51.148;16.932;2023-04-24T10:40:06;11.13;;;6.53;;
45893;SDS011;31603;51.148;16.932;2023-04-24T10:42:33;31.10;;;8.15;;
45893;SDS011;31603;51.148;16.932;2023-04-24T10:45:04;9.15;;;5.63;;
45893;SDS011;31603;51.148;16.932;2023-04-24T10:47:40;7.18;;;5.50;;
45893;SDS011;31603;51.148;16.932;2023-04-24T10:50:08;7.57;;;5.47;;
45893;SDS011;31603;51.148;16.932;2023-04-24T10:52:43;7.38;;;5.50;;
45893;SDS011;31603;51.148;16.932;2023-04-24T10:55:09;7.28;;;5.40;;
45893;SDS011;31603;51.148;16.932;2023-04-24T10:57:36;7.82;;;5.70;;
45893;SDS011;31603;51.148;16.932;2023-04-24T11:02:57;8.25;;;5.07;;
45893;SDS011;31603;51.148;16.932;2023-04-24T11:08:10;5.65;;;4.32;;
45893;SDS011;31603;51.148;16.932;2023-04-24T11:10:39;7.57;;;4.85;;
45893;SDS011;31603;51.148;16.932;2023-04-24T11:13:05;6.93;;;5.13;;
45893;SDS011;31603;51.148;16.932;2023-04-24T11:15:32;7.93;;;5.88;;
45893;SDS011;31603;51.148;16.932;2023-04-24T11:18:00;8.45;;;5.72;;
45893;SDS011;31603;51.148;16.932;2023-04-24T11:20:26;9.93;;;5.85;;
45893;SDS011;31603;51.148;16.932;2023-04-24T11:22:52;6.65;;;5.65;;
45893;SDS011;31603;51.148;16.932;2023-04-24T11:25:19;7.88;;;6.43;;
45893;SDS011;31603;51.148;16.932;2023-04-24T11:27:47;7.80;;;5.28;;
45893;SDS011;31603;51.148;16.932;2023-04-24T11:30:16;6.45;;;5.47;;
45893;SDS011;31603;51.148;16.932;2023-04-24T11:32:43;5.78;;;4.50;;
45893;SDS011;31603;51.148;16.932;2023-04-24T11:35:13;7.22;;;5.10;;
45893;SDS011;31603;51.148;16.932;2023-04-24T11:37:40;6.50;;;4.35;;
45893;SDS011;31603;51.148;16.932;2023-04-24T11:40:07;4.85;;;4.35;;
45893;SDS011;31603;51.148;16.932;2023-04-24T11:42:35;7.35;;;4.43;;
45893;SDS011;31603;51.148;16.932;2023-04-24T11:45:01;9.55;;;5.10;;
45893;SDS011;31603;51.148;16.932;2023-04-24T11:47:33;5.50;;;3.83;;
45893;SDS011;31603;51.148;16.932;2023-04-24T11:50:00;6.10;;;4.50;;
45893;SDS011;31603;51.148;16.932;2023-04-24T11:52:28;5.80;;;3.78;;
45893;SDS011;31603;51.148;16.932;2023-04-24T11:54:54;5.65;;;4.57;;
45893;SDS011;31603;51.148;16.932;2023-04-24T11:57:21;7.57;;;4.60;;
45893;SDS011;31603;51.148;16.932;2023-04-24T11:59:47;7.95;;;4.85;;
45893;SDS011;31603;51.148;16.932;2023-04-24T12:02:20;5.45;;;4.95;;
45893;SDS011;31603;51.148;16.932;2023-04-24T12:04:47;7.32;;;4.90;;
45893;SDS011;31603;51.148;16.932;2023-04-24T12:07:13;6.35;;;4.50;;
45893;SDS011;31603;51.148;16.932;2023-04-24T12:09:42;6.30;;;4.55;;
45893;SDS011;31603;51.148;16.932;2023-04-24T12:12:08;8.10;;;4.68;;
45893;SDS011;31603;51.148;16.932;2023-04-24T12:14:41;4.97;;;3.80;;
45893;SDS011;31603;51.148;16.932;2023-04-24T12:17:07;4.13;;;3.47;;
45893;SDS011;31603;51.148;16.932;2023-04-24T12:19:34;6.28;;;4.20;;
45893;SDS011;31603;51.148;16.932;2023-04-24T12:22:00;4.82;;;3.60;;
45893;SDS011;31603;51.148;16.932;2023-04-24T12:24:26;7.22;;;4.00;;
45893;SDS011;31603;51.148;16.932;2023-04-24T12:26:54;5.13;;;3.90;;
45893;SDS011;31603;51.148;16.932;2023-04-24T12:29:21;5.85;;;3.90;;
45893;SDS011;31603;51.148;16.932;2023-04-24T12:31:48;6.70;;;4.28;;
45893;SDS011;31603;51.148;16.932;2023-04-24T12:34:18;6.70;;;4.50;;
45893;SDS011;31603;51.148;16.932;2023-04-24T12:36:45;5.75;;;4.70;;
45893;SDS011;31603;51.148;16.932;2023-04-24T12:39:14;6.43;;;5.28;;
45893;SDS011;31603;51.148;16.932;2023-04-24T12:41:48;8.52;;;5.32;;
45893;SDS011;31603;51.148;16.932;2023-04-24T12:44:17;8.68;;;5.90;;
45893;SDS011;31603;51.148;16.932;2023-04-24T12:46:43;9.40;;;5.30;;
45893;SDS011;31603;51.148;16.932;2023-04-24T12:49:10;9.32;;;6.05;;
45893;SDS011;31603;51.148;16.932;2023-04-24T12:51:36;6.53;;;3.63;;
45893;SDS011;31603;51.148;16.932;2023-04-24T12:54:03;5.22;;;2.70;;
45893;SDS011;31603;51.148;16.932;2023-04-24T12:56:29;3.22;;;2.05;;
45893;SDS011;31603;51.148;16.932;2023-04-24T12:58:56;3.10;;;2.20;;
45893;SDS011;31603;51.148;16.932;2023-04-24T13:01:24;5.38;;;1.92;;
45893;SDS011;31603;51.148;16.932;2023-04-24T13:03:51;3.65;;;1.90;;
45893;SDS011;31603;51.148;16.932;2023-04-24T13:06:17;2.78;;;1.30;;
45893;SDS011;31603;51.148;16.932;2023-04-24T13:08:44;2.63;;;1.42;;
45893;SDS011;31603;51.148;16.932;2023-04-24T13:11:12;1.67;;;1.40;;
45893;SDS011;31603;51.148;16.932;2023-04-24T13:13:38;3.58;;;1.60;;
45893;SDS011;31603;51.148;16.932;2023-04-24T13:16:05;24.95;;;3.85;;
45893;SDS011;31603;51.148;16.932;2023-04-24T13:18:32;37.22;;;4.80;;
45893;SDS011;31603;51.148;16.932;2023-04-24T13:20:59;2.60;;;1.70;;
45893;SDS011;31603;51.148;16.932;2023-04-24T13:23:25;2.35;;;1.58;;
45893;SDS011;31603;51.148;16.932;2023-04-24T13:25:51;3.35;;;2.00;;
45893;SDS011;31603;51.148;16.932;2023-04-24T13:28:22;3.17;;;1.47;;
45893;SDS011;31603;51.148;16.932;2023-04-24T13:30:48;4.25;;;1.85;;
45893;SDS011;31603;51.148;16.932;2023-04-24T13:33:15;2.85;;;1.30;;
45893;SDS011;31603;51.148;16.932;2023-04-24T13:35:43;2.75;;;1.30;;
45893;SDS011;31603;51.148;16.932;2023-04-24T13:38:09;7.22;;;3.47;;
45893;SDS011;31603;51.148;16.932;2023-04-24T13:40:35;2.17;;;1.10;;
45893;SDS011;31603;51.148;16.932;2023-04-24T13:43:02;1.40;;;0.90;;
45893;SDS011;31603;51.148;16.932;2023-04-24T13:45:28;1.63;;;0.90;;
45893;SDS011;31603;51.148;16.932;2023-04-24T13:47:54;3.47;;;1.10;;
45893;SDS011;31603;51.148;16.932;2023-04-24T13:50:22;2.50;;;1.02;;
45893;SDS011;31603;51.148;16.932;2023-04-24T13:52:50;2.22;;;1.10;;
45893;SDS011;31603;51.148;16.932;2023-04-24T13:55:16;1.90;;;1.40;;
45893;SDS011;31603;51.148;16.932;2023-04-24T13:57:42;3.05;;;1.50;;
45893;SDS011;31603;51.148;16.932;2023-04-24T14:00:09;3.22;;;1.75;;
45893;SDS011;31603;51.148;16.932;2023-04-24T14:02:36;3.30;;;1.65;;
45893;SDS011;31603;51.148;16.932;2023-04-24T14:05:02;2.42;;;1.40;;
45893;SDS011;31603;51.148;16.932;2023-04-24T14:07:29;4.18;;;1.73;;
45893;SDS011;31603;51.148;16.932;2023-04-24T14:09:56;2.97;;;1.85;;
45893;SDS011;31603;51.148;16.932;2023-04-24T14:12:23;3.70;;;2.20;;
45893;SDS011;31603;51.148;16.932;2023-04-24T14:14:49;4.63;;;2.25;;
45893;SDS011;31603;51.148;16.932;2023-04-24T14:17:15;4.32;;;2.63;;
45893;SDS011;31603;51.148;16.932;2023-04-24T14:19:42;6.43;;;3.33;;
45893;SDS011;31603;51.148;16.932;2023-04-24T14:22:08;8.10;;;3.10;;
45893;SDS011;31603;51.148;16.932;2023-04-24T14:24:34;3.42;;;2.42;;
45893;SDS011;31603;51.148;16.932;2023-04-24T14:27:02;7.00;;;2.97;;